Time;durP1;ratioP1;P1;durP2;ratioP2;P2;SDS_P1;SDS_P2;PMS_P1;PMS_P2;Temp;Humidity;BMP_temperature;BMP_pressure;BME280_temperature;BME280_humidity;BME280_pressure;Samples;Min_cycle;Max_cycle;Signal;HPM_P1;HPM_P2
2021/06/03 00:01:14;;;;;;;12.18;8.02;;;;;;;;;;5014372;28;20444;-76
2021/06/03 00:03:40;;;;;;;10.00;7.27;;;;;;;;;;5011980;28;20192;-77
2021/06/03 00:06:07;;;;;;;7.65;6.95;;;;;;;;;;5018392;28;20490;-77
2021/06/03 00:08:34;;;;;;;9.27;8.32;;;;;;;;;;5008034;28;20180;-77
2021/06/03 00:11:02;;;;;;;15.30;7.97;;;;;;;;;;5010168;28;20193;-77
2021/06/03 00:13:29;;;;;;;8.57;7.78;;;;;;;;;;4995564;28;20190;-77
2021/06/03 00:15:56;;;;;;;9.93;8.35;;;;;;;;;;4998535;28;20200;-77
2021/06/03 00:18:22;;;;;;;8.45;7.60;;;;;;;;;;5010479;28;20207;-77
2021/06/03 00:20:49;;;;;;;10.02;7.93;;;;;;;;;;5006721;28;20205;-77
2021/06/03 00:23:15;;;;;;;9.63;8.07;;;;;;;;;;5008687;28;20304;-77
2021/06/03 00:25:41;;;;;;;9.83;8.63;;;;;;;;;;5019206;28;20555;-77
2021/06/03 00:28:07;;;;;;;7.97;7.20;;;;;;;;;;5000962;28;20472;-77
2021/06/03 00:30:33;;;;;;;10.25;8.40;;;;;;;;;;4995197;28;20193;-77
2021/06/03 00:32:59;;;;;;;8.45;7.75;;;;;;;;;;4989976;28;20194;-77
2021/06/03 00:35:25;;;;;;;8.63;7.82;;;;;;;;;;4990974;28;20681;-77
2021/06/03 00:37:51;;;;;;;8.48;7.22;;;;;;;;;;5009964;28;20234;-77
2021/06/03 00:40:18;;;;;;;7.95;7.18;;;;;;;;;;4995701;28;20191;-77
2021/06/03 00:42:44;;;;;;;8.23;7.43;;;;;;;;;;4995354;28;20243;-77
2021/06/03 00:45:12;;;;;;;10.38;8.07;;;;;;;;;;5007735;28;20196;-77
2021/06/03 00:47:38;;;;;;;8.52;7.70;;;;;;;;;;5024938;28;20232;-77
2021/06/03 00:50:09;;;;;;;8.52;7.65;;;;;;;;;;5020888;28;20179;-77
2021/06/03 00:52:35;;;;;;;7.72;7.00;;;;;;;;;;4996827;28;20183;-77
2021/06/03 00:55:01;;;;;;;9.17;7.60;;;;;;;;;;4994750;28;20280;-77
2021/06/03 00:57:27;;;;;;;11.38;7.82;;;;;;;;;;4995183;28;20453;-77
2021/06/03 00:59:53;;;;;;;9.00;8.10;;;;;;;;;;5005746;28;20218;-78
2021/06/03 01:02:19;;;;;;;11.23;7.63;;;;;;;;;;5004976;28;20469;-77
2021/06/03 01:04:45;;;;;;;9.23;8.23;;;;;;;;;;5019848;28;20183;-77
2021/06/03 01:07:11;;;;;;;11.37;8.20;;;;;;;;;;5021531;28;20206;-77
2021/06/03 01:09:53;;;;;;;9.47;8.50;;;;;;;;;;5004127;28;20521;-77
2021/06/03 01:12:22;;;;;;;8.50;7.70;;;;;;;;;;4990114;28;20439;-77
2021/06/03 01:14:52;;;;;;;8.23;7.43;;;;;;;;;;5021030;28;20186;-78
2021/06/03 01:17:20;;;;;;;11.10;8.38;;;;;;;;;;5008828;28;20198;-78
2021/06/03 01:19:46;;;;;;;14.32;8.50;;;;;;;;;;5009343;28;20245;-77
2021/06/03 01:22:15;;;;;;;11.15;8.35;;;;;;;;;;5009011;28;20299;-77
2021/06/03 01:24:43;;;;;;;8.52;7.68;;;;;;;;;;4993843;28;20179;-77
2021/06/03 01:27:14;;;;;;;7.85;7.22;;;;;;;;;;4989020;28;20225;-77
2021/06/03 01:29:46;;;;;;;7.70;7.00;;;;;;;;;;5003854;28;20179;-77
2021/06/03 01:32:12;;;;;;;8.80;8.00;;;;;;;;;;5008904;28;20210;-77
2021/06/03 01:34:39;;;;;;;9.00;7.70;;;;;;;;;;5009669;28;20195;-77
2021/06/03 01:37:05;;;;;;;8.23;7.40;;;;;;;;;;5013690;28;20189;-77
2021/06/03 01:39:33;;;;;;;7.97;7.18;;;;;;;;;;5007211;28;20187;-77
2021/06/03 01:41:59;;;;;;;9.25;7.55;;;;;;;;;;5019878;28;20210;-77
2021/06/03 01:44:26;;;;;;;9.30;7.95;;;;;;;;;;4989626;28;20184;-77
2021/06/03 01:46:53;;;;;;;9.02;8.13;;;;;;;;;;5008670;28;20175;-77
2021/06/03 01:49:19;;;;;;;9.35;7.65;;;;;;;;;;5009343;28;20183;-77
2021/06/03 01:51:45;;;;;;;10.85;8.10;;;;;;;;;;5008856;28;20190;-77
2021/06/03 01:54:13;;;;;;;8.15;7.35;;;;;;;;;;4988859;28;20760;-77
2021/06/03 01:56:39;;;;;;;9.35;8.45;;;;;;;;;;5004956;28;20177;-77
2021/06/03 01:59:05;;;;;;;9.02;7.30;;;;;;;;;;4990681;28;20544;-77
2021/06/03 02:01:31;;;;;;;8.03;7.03;;;;;;;;;;5008799;28;20199;-77
2021/06/03 02:03:57;;;;;;;8.70;7.88;;;;;;;;;;4994652;28;20426;-77
2021/06/03 02:06:24;;;;;;;13.02;7.95;;;;;;;;;;5012321;28;20178;-77
2021/06/03 02:08:50;;;;;;;8.40;7.20;;;;;;;;;;5004886;28;20373;-77
2021/06/03 02:11:16;;;;;;;8.90;7.65;;;;;;;;;;4990797;28;20235;-77
2021/06/03 02:13:47;;;;;;;8.00;7.22;;;;;;;;;;5009285;28;20202;-78
2021/06/03 02:16:25;;;;;;;8.95;8.05;;;;;;;;;;4993863;28;20198;-77
2021/06/03 02:18:54;;;;;;;8.88;8.05;;;;;;;;;;5009444;28;20211;-77
2021/06/03 02:21:21;;;;;;;8.25;7.55;;;;;;;;;;4992378;28;20223;-77
2021/06/03 02:23:48;;;;;;;8.05;7.25;;;;;;;;;;5004890;28;20234;-77
2021/06/03 02:26:15;;;;;;;11.15;8.40;;;;;;;;;;5027349;28;20178;-77
2021/06/03 02:28:41;;;;;;;8.68;7.78;;;;;;;;;;5014447;28;20186;-77
2021/06/03 02:31:08;;;;;;;9.50;7.30;;;;;;;;;;5002223;28;20242;-77
2021/06/03 02:33:34;;;;;;;7.68;6.97;;;;;;;;;;5013980;28;20186;-77
2021/06/03 02:36:01;;;;;;;9.23;7.40;;;;;;;;;;5021107;28;20194;-77
2021/06/03 02:38:28;;;;;;;8.93;8.15;;;;;;;;;;5010776;28;20180;-76
2021/06/03 02:40:54;;;;;;;9.25;8.30;;;;;;;;;;5012665;28;20182;-77
2021/06/03 02:43:20;;;;;;;8.10;7.40;;;;;;;;;;4997447;28;20248;-77
2021/06/03 02:45:46;;;;;;;8.25;7.55;;;;;;;;;;4995100;28;20217;-77
2021/06/03 02:48:13;;;;;;;8.25;7.45;;;;;;;;;;5004955;28;20195;-77
2021/06/03 02:50:39;;;;;;;9.25;8.32;;;;;;;;;;5007886;28;20176;-77
2021/06/03 02:53:05;;;;;;;8.40;7.55;;;;;;;;;;5011524;28;20719;-77
2021/06/03 02:55:32;;;;;;;8.95;7.80;;;;;;;;;;4996919;28;20187;-77
2021/06/03 02:57:58;;;;;;;8.55;7.75;;;;;;;;;;5013680;28;20205;-77
2021/06/03 03:00:28;;;;;;;8.90;7.38;;;;;;;;;;5007786;28;20186;-77
2021/06/03 03:02:54;;;;;;;9.98;8.85;;;;;;;;;;5007593;28;20202;-77
2021/06/03 03:05:20;;;;;;;8.48;7.35;;;;;;;;;;4999627;28;20532;-77
2021/06/03 03:07:48;;;;;;;11.82;7.70;;;;;;;;;;4997156;28;20194;-77
2021/06/03 03:10:17;;;;;;;9.65;8.65;;;;;;;;;;5011971;28;20208;-77
2021/06/03 03:12:43;;;;;;;8.30;7.60;;;;;;;;;;5011905;28;20273;-77
2021/06/03 03:15:11;;;;;;;10.75;7.90;;;;;;;;;;5008451;28;20199;-77
2021/06/03 03:17:37;;;;;;;9.35;8.40;;;;;;;;;;5006942;28;20179;-77
2021/06/03 03:20:04;;;;;;;8.98;7.93;;;;;;;;;;5024863;28;20193;-77
2021/06/03 03:22:30;;;;;;;9.48;7.40;;;;;;;;;;5013799;28;20235;-76
2021/06/03 03:24:56;;;;;;;9.95;8.95;;;;;;;;;;5010939;28;20602;-77
2021/06/03 03:27:22;;;;;;;7.88;7.15;;;;;;;;;;5009358;28;20601;-77
2021/06/03 03:29:48;;;;;;;11.23;7.33;;;;;;;;;;5022526;28;20183;-77
2021/06/03 03:32:15;;;;;;;8.52;7.78;;;;;;;;;;5010191;28;20426;-77
2021/06/03 03:34:41;;;;;;;10.02;7.13;;;;;;;;;;4996113;28;20204;-77
2021/06/03 03:37:07;;;;;;;8.60;7.78;;;;;;;;;;4997215;28;20206;-77
2021/06/03 03:39:33;;;;;;;8.60;6.90;;;;;;;;;;5021367;28;20190;-77
2021/06/03 03:41:59;;;;;;;9.70;8.70;;;;;;;;;;4990663;28;20207;-77
2021/06/03 03:44:25;;;;;;;9.60;8.18;;;;;;;;;;4991402;28;20418;-77
2021/06/03 03:46:52;;;;;;;10.00;8.03;;;;;;;;;;4993492;28;20191;-77
2021/06/03 03:49:18;;;;;;;10.73;7.85;;;;;;;;;;4996603;28;20442;-77
2021/06/03 03:51:44;;;;;;;8.00;7.32;;;;;;;;;;5011199;28;20187;-77
2021/06/03 03:54:10;;;;;;;9.25;8.25;;;;;;;;;;4990838;28;20187;-77
2021/06/03 03:56:36;;;;;;;9.57;7.60;;;;;;;;;;5005908;28;20201;-77
2021/06/03 03:59:03;;;;;;;8.53;7.53;;;;;;;;;;5005961;28;20414;-77
2021/06/03 04:01:30;;;;;;;9.65;8.02;;;;;;;;;;4995217;28;20513;-77
2021/06/03 04:03:56;;;;;;;9.65;8.43;;;;;;;;;;4995883;28;20183;-77
2021/06/03 04:06:22;;;;;;;9.68;8.52;;;;;;;;;;5020482;28;20540;-77
2021/06/03 04:08:48;;;;;;;9.65;8.70;;;;;;;;;;5006410;28;20175;-77
2021/06/03 04:11:14;;;;;;;9.68;7.82;;;;;;;;;;5012442;28;20174;-77
2021/06/03 04:13:40;;;;;;;9.40;8.02;;;;;;;;;;4998102;28;20194;-77
2021/06/03 04:16:06;;;;;;;10.10;8.30;;;;;;;;;;5009268;28;20237;-77
2021/06/03 04:18:32;;;;;;;8.93;8.15;;;;;;;;;;5010046;28;20217;-77
2021/06/03 04:20:58;;;;;;;8.30;7.50;;;;;;;;;;5006813;28;20242;-77
2021/06/03 04:23:24;;;;;;;8.93;7.90;;;;;;;;;;5025067;28;20951;-77
2021/06/03 04:25:50;;;;;;;9.13;8.20;;;;;;;;;;5018623;28;20183;-77
2021/06/03 04:28:16;;;;;;;8.80;7.43;;;;;;;;;;4999512;28;20277;-77
2021/06/03 04:30:45;;;;;;;10.02;8.52;;;;;;;;;;5009117;28;20190;-77
2021/06/03 04:33:11;;;;;;;10.55;8.55;;;;;;;;;;5008631;28;20175;-77
2021/06/03 04:35:37;;;;;;;10.10;8.77;;;;;;;;;;5007864;28;20448;-77
2021/06/03 04:38:03;;;;;;;10.85;8.57;;;;;;;;;;5008429;28;20278;-77
2021/06/03 04:40:29;;;;;;;12.48;7.60;;;;;;;;;;5010128;28;20190;-77
2021/06/03 04:42:57;;;;;;;9.82;7.63;;;;;;;;;;4994988;28;20209;-77
2021/06/03 04:45:23;;;;;;;9.40;8.48;;;;;;;;;;5009157;28;20430;-77
2021/06/03 04:47:50;;;;;;;9.07;8.18;;;;;;;;;;5005584;28;20198;-77
2021/06/03 04:50:17;;;;;;;9.30;8.40;;;;;;;;;;4991897;28;20219;-77
2021/06/03 04:52:43;;;;;;;8.88;8.07;;;;;;;;;;4994331;28;20202;-77
2021/06/03 04:55:11;;;;;;;9.45;8.55;;;;;;;;;;5016688;28;20275;-77
2021/06/03 04:57:37;;;;;;;8.55;7.65;;;;;;;;;;5028188;28;20583;-77
2021/06/03 05:00:06;;;;;;;16.75;8.43;;;;;;;;;;5006472;28;20188;-77
2021/06/03 05:02:32;;;;;;;9.40;7.97;;;;;;;;;;5007298;28;20203;-77
2021/06/03 05:04:58;;;;;;;12.07;8.25;;;;;;;;;;5009629;28;20203;-77
2021/06/03 05:07:24;;;;;;;10.03;8.10;;;;;;;;;;4995091;28;20194;-77
2021/06/03 05:09:50;;;;;;;7.30;6.67;;;;;;;;;;4994829;28;20435;-77
2021/06/03 05:12:16;;;;;;;10.03;8.93;;;;;;;;;;5008030;28;20433;-77
2021/06/03 05:14:42;;;;;;;8.32;7.50;;;;;;;;;;5005626;28;20952;-77
2021/06/03 05:17:08;;;;;;;8.60;7.63;;;;;;;;;;4990771;28;20544;-77
2021/06/03 05:19:36;;;;;;;10.03;8.30;;;;;;;;;;5009358;28;20196;-77
2021/06/03 05:22:02;;;;;;;8.85;7.93;;;;;;;;;;4994806;28;20528;-77
2021/06/03 05:24:28;;;;;;;8.45;7.70;;;;;;;;;;5020157;28;20182;-77
2021/06/03 05:26:54;;;;;;;9.60;8.20;;;;;;;;;;5005009;28;20183;-77
2021/06/03 05:29:21;;;;;;;10.35;8.65;;;;;;;;;;4990491;28;20422;-77
2021/06/03 05:31:47;;;;;;;9.10;8.20;;;;;;;;;;4994183;28;20668;-77
2021/06/03 05:34:13;;;;;;;9.45;8.50;;;;;;;;;;5012732;28;20222;-77
2021/06/03 05:36:40;;;;;;;9.18;8.10;;;;;;;;;;5003126;28;20650;-77
2021/06/03 05:39:06;;;;;;;10.07;8.77;;;;;;;;;;5006993;28;20266;-77
2021/06/03 05:41:33;;;;;;;9.30;8.25;;;;;;;;;;5006872;28;20183;-77
2021/06/03 05:43:59;;;;;;;8.80;7.90;;;;;;;;;;4991208;28;20176;-77
2021/06/03 05:46:25;;;;;;;8.27;7.45;;;;;;;;;;5020925;28;20188;-77
2021/06/03 05:48:51;;;;;;;9.45;8.20;;;;;;;;;;5002209;28;20188;-77
2021/06/03 05:51:18;;;;;;;9.20;8.30;;;;;;;;;;5007514;28;20199;-77
2021/06/03 05:53:44;;;;;;;10.75;8.45;;;;;;;;;;5021823;28;20931;-77
2021/06/03 05:56:10;;;;;;;8.75;7.68;;;;;;;;;;5024804;28;20236;-77
2021/06/03 05:58:36;;;;;;;12.07;8.38;;;;;;;;;;5009326;28;20183;-77
2021/06/03 06:01:02;;;;;;;11.53;8.73;;;;;;;;;;5014373;28;20731;-77
2021/06/03 06:03:47;;;;;;;8.93;8.02;;;;;;;;;;4995659;28;20473;-77
2021/06/03 06:08:49;;;;;;;8.35;7.55;;;;;;;;;;5009060;28;20184;-77
2021/06/03 06:11:15;;;;;;;8.98;8.18;;;;;;;;;;5027149;28;20188;-77
2021/06/03 06:13:41;;;;;;;10.03;7.90;;;;;;;;;;5013756;28;20188;-77
2021/06/03 06:16:07;;;;;;;8.65;7.55;;;;;;;;;;5019490;28;20454;-77
2021/06/03 06:18:34;;;;;;;9.23;7.50;;;;;;;;;;5022570;28;20191;-77
2021/06/03 06:21:00;;;;;;;11.75;8.32;;;;;;;;;;5009319;28;20445;-77
2021/06/03 06:23:26;;;;;;;9.10;8.27;;;;;;;;;;5011124;28;20258;-77
2021/06/03 06:25:52;;;;;;;8.75;7.55;;;;;;;;;;5012266;28;20641;-77
2021/06/03 06:28:18;;;;;;;10.25;7.95;;;;;;;;;;5011975;28;20701;-77
2021/06/03 06:30:44;;;;;;;11.80;8.05;;;;;;;;;;4997325;28;20186;-78
2021/06/03 06:33:10;;;;;;;9.05;8.15;;;;;;;;;;5010944;28;20190;-77
2021/06/03 06:35:36;;;;;;;9.10;8.20;;;;;;;;;;5019044;28;20212;-77
2021/06/03 06:38:03;;;;;;;9.30;8.37;;;;;;;;;;4994007;28;20253;-77
2021/06/03 06:40:29;;;;;;;10.52;9.52;;;;;;;;;;5014022;28;20452;-78
2021/06/03 06:42:55;;;;;;;9.38;8.02;;;;;;;;;;5025188;28;20239;-79
2021/06/03 06:45:22;;;;;;;12.13;8.57;;;;;;;;;;5027702;28;20241;-78
2021/06/03 06:47:49;;;;;;;9.90;7.53;;;;;;;;;;4994936;28;20182;-80
2021/06/03 06:50:15;;;;;;;8.77;7.88;;;;;;;;;;5008341;28;20182;-79
2021/06/03 06:52:41;;;;;;;9.30;8.40;;;;;;;;;;4999912;28;20191;-80
2021/06/03 06:55:08;;;;;;;10.70;7.97;;;;;;;;;;5018361;28;20196;-80
2021/06/03 06:57:34;;;;;;;9.68;8.30;;;;;;;;;;5002767;28;20224;-80
2021/06/03 07:00:00;;;;;;;11.88;10.48;;;;;;;;;;5015157;28;20194;-80
2021/06/03 07:02:26;;;;;;;8.65;7.85;;;;;;;;;;5009803;28;20199;-79
2021/06/03 07:04:52;;;;;;;11.65;7.88;;;;;;;;;;4994336;28;20616;-79
2021/06/03 07:07:18;;;;;;;11.75;8.57;;;;;;;;;;5008967;28;20670;-79
2021/06/03 07:09:44;;;;;;;8.68;7.88;;;;;;;;;;4999074;28;20301;-79
2021/06/03 07:12:12;;;;;;;9.93;7.73;;;;;;;;;;5024061;28;20234;-79
2021/06/03 07:14:38;;;;;;;10.77;8.05;;;;;;;;;;5012919;28;20429;-79
2021/06/03 07:17:04;;;;;;;9.10;7.40;;;;;;;;;;5011443;28;20183;-79
2021/06/03 07:19:31;;;;;;;11.05;8.10;;;;;;;;;;5016342;28;20186;-79
2021/06/03 07:21:57;;;;;;;9.88;7.53;;;;;;;;;;5020206;28;20221;-79
2021/06/03 07:24:23;;;;;;;8.27;7.40;;;;;;;;;;5023939;28;20193;-78
2021/06/03 07:26:49;;;;;;;9.60;7.37;;;;;;;;;;5016164;28;20214;-78
2021/06/03 07:29:15;;;;;;;8.33;7.53;;;;;;;;;;5013133;28;20429;-77
2021/06/03 07:31:41;;;;;;;10.07;8.20;;;;;;;;;;5019614;28;20424;-77
2021/06/03 07:34:07;;;;;;;9.90;8.27;;;;;;;;;;5008665;28;20437;-78
2021/06/03 07:36:34;;;;;;;12.70;8.67;;;;;;;;;;5015343;28;20414;-78
2021/06/03 07:39:00;;;;;;;10.33;8.67;;;;;;;;;;5005142;28;20906;-78
2021/06/03 07:41:26;;;;;;;8.50;7.00;;;;;;;;;;5024510;28;20421;-79
2021/06/03 07:43:53;;;;;;;9.43;8.17;;;;;;;;;;5015357;28;20540;-77
2021/06/03 07:46:19;;;;;;;11.87;8.10;;;;;;;;;;5025929;28;20441;-78
2021/06/03 07:48:45;;;;;;;9.00;8.10;;;;;;;;;;5006384;28;20975;-78
2021/06/03 07:51:11;;;;;;;8.37;7.57;;;;;;;;;;5022644;28;20446;-77
2021/06/03 07:53:38;;;;;;;8.30;7.47;;;;;;;;;;5006655;28;20427;-78
2021/06/03 07:56:04;;;;;;;9.40;8.40;;;;;;;;;;5028658;28;20392;-78
2021/06/03 07:58:30;;;;;;;8.60;7.70;;;;;;;;;;5004049;28;20437;-78
2021/06/03 08:00:56;;;;;;;7.30;6.70;;;;;;;;;;5017280;28;20487;-78
2021/06/03 08:03:22;;;;;;;8.77;7.87;;;;;;;;;;4999752;28;20431;-79
2021/06/03 08:05:48;;;;;;;7.80;7.00;;;;;;;;;;5036633;28;20464;-78
2021/06/03 08:08:14;;;;;;;10.00;7.03;;;;;;;;;;5032825;28;20488;-77
2021/06/03 08:10:42;;;;;;;8.27;7.37;;;;;;;;;;5017864;28;20472;-78
2021/06/03 08:13:08;;;;;;;8.80;6.97;;;;;;;;;;5012975;28;20589;-77
2021/06/03 08:15:34;;;;;;;10.80;7.87;;;;;;;;;;5023389;28;20426;-77
2021/06/03 08:18:02;;;;;;;8.20;7.40;;;;;;;;;;4989453;28;20449;-77
2021/06/03 08:20:30;;;;;;;9.50;7.30;;;;;;;;;;4999201;28;20409;-77
2021/06/03 08:22:57;;;;;;;10.60;7.90;;;;;;;;;;5014982;28;20564;-78
2021/06/03 08:25:23;;;;;;;8.80;7.90;;;;;;;;;;4994245;28;20441;-78
2021/06/03 08:27:49;;;;;;;7.30;6.70;;;;;;;;;;5006775;28;20405;-77
2021/06/03 08:30:16;;;;;;;7.70;6.40;;;;;;;;;;5016429;28;20947;-78
2021/06/03 08:32:43;;;;;;;9.00;6.50;;;;;;;;;;4989163;28;20489;-78
2021/06/03 08:35:16;;;;;;;9.07;8.10;;;;;;;;;;5009366;28;20753;-77
2021/06/03 08:37:43;;;;;;;7.30;6.53;;;;;;;;;;4996066;28;20469;-78
2021/06/03 08:40:09;;;;;;;8.17;7.10;;;;;;;;;;5005348;28;20419;-78
2021/06/03 08:42:35;;;;;;;8.47;7.70;;;;;;;;;;5003848;28;20475;-78
2021/06/03 08:45:02;;;;;;;7.30;6.53;;;;;;;;;;5022359;28;20480;-77
2021/06/03 08:47:29;;;;;;;7.10;6.50;;;;;;;;;;5021042;28;20780;-78
2021/06/03 08:49:56;;;;;;;7.63;6.80;;;;;;;;;;4991882;28;20425;-78
2021/06/03 08:52:22;;;;;;;7.07;6.37;;;;;;;;;;5009434;28;20438;-78
2021/06/03 08:54:53;;;;;;;7.67;6.30;;;;;;;;;;5009782;28;20416;-77
2021/06/03 08:57:19;;;;;;;8.93;7.20;;;;;;;;;;5008739;28;20416;-77
2021/06/03 08:59:45;;;;;;;10.07;6.40;;;;;;;;;;4999354;28;20411;-78
2021/06/03 09:02:11;;;;;;;11.43;7.40;;;;;;;;;;4991345;28;20456;-78
2021/06/03 09:04:37;;;;;;;8.00;6.80;;;;;;;;;;5011201;28;20409;-77
2021/06/03 09:07:03;;;;;;;7.43;6.60;;;;;;;;;;5011634;28;20451;-78
2021/06/03 09:09:30;;;;;;;8.80;5.80;;;;;;;;;;5013615;28;20479;-78
2021/06/03 09:12:29;;;;;;;7.40;6.57;;;;;;;;;;5005872;28;20445;-78
2021/06/03 09:15:13;;;;;;;7.97;7.07;;;;;;;;;;4947171;28;20449;-79
2021/06/03 09:17:48;;;;;;;8.33;6.10;;;;;;;;;;4934720;29;20384;-78
2021/06/03 09:20:14;;;;;;;7.57;5.60;;;;;;;;;;4950044;29;20423;-78
2021/06/03 09:22:41;;;;;;;7.03;6.20;;;;;;;;;;4950402;28;20484;-79
2021/06/03 09:25:26;;;;;;;8.53;6.33;;;;;;;;;;4949052;28;20545;-78
2021/06/03 09:27:52;;;;;;;7.27;5.77;;;;;;;;;;4950384;28;20535;-79
2021/06/03 09:30:18;;;;;;;6.50;6.00;;;;;;;;;;4945663;28;20457;-78
2021/06/03 09:32:54;;;;;;;7.73;6.90;;;;;;;;;;4936500;28;20430;-77
2021/06/03 09:35:20;;;;;;;6.47;5.73;;;;;;;;;;4958151;29;20426;-79
2021/06/03 09:37:46;;;;;;;10.00;6.20;;;;;;;;;;4945614;28;20443;-79
2021/06/03 09:40:22;;;;;;;6.53;5.93;;;;;;;;;;4938242;29;20447;-79
2021/06/03 09:43:06;;;;;;;10.77;6.40;;;;;;;;;;4949056;28;20490;-79
2021/06/03 09:45:53;;;;;;;5.77;5.37;;;;;;;;;;4946505;29;20856;-79
2021/06/03 09:48:37;;;;;;;5.80;5.30;;;;;;;;;;4942279;28;20418;-78
2021/06/03 09:51:22;;;;;;;8.60;6.57;;;;;;;;;;4976312;28;20659;-79
2021/06/03 09:53:54;;;;;;;8.57;5.97;;;;;;;;;;5008988;28;20408;-79
2021/06/03 09:56:46;;;;;;;7.30;6.10;;;;;;;;;;5006146;28;20482;-79
2021/06/03 09:59:17;;;;;;;8.83;6.10;;;;;;;;;;5006467;28;20392;-79
2021/06/03 10:01:43;;;;;;;9.10;6.70;;;;;;;;;;4998658;28;20422;-78
2021/06/03 10:04:09;;;;;;;8.07;7.03;;;;;;;;;;5004045;28;20806;-77
2021/06/03 10:06:54;;;;;;;10.53;6.60;;;;;;;;;;5007408;28;20419;-80
2021/06/03 10:09:38;;;;;;;6.60;6.00;;;;;;;;;;5020703;28;20406;-79
2021/06/03 10:12:05;;;;;;;10.13;6.47;;;;;;;;;;5011375;28;20441;-79
2021/06/03 10:14:32;;;;;;;11.80;6.37;;;;;;;;;;5024166;28;20982;-80
2021/06/03 10:16:58;;;;;;;10.53;6.33;;;;;;;;;;5023247;28;20464;-79
2021/06/03 10:19:29;;;;;;;6.30;5.70;;;;;;;;;;5005248;28;20436;-80
2021/06/03 10:22:13;;;;;;;6.83;6.13;;;;;;;;;;5020125;28;20512;-80
2021/06/03 10:24:59;;;;;;;6.80;6.13;;;;;;;;;;5021222;28;20405;-80
2021/06/03 10:27:27;;;;;;;7.60;5.60;;;;;;;;;;5019573;28;20918;-80
2021/06/03 10:29:53;;;;;;;6.80;6.10;;;;;;;;;;5022145;28;20415;-80
2021/06/03 10:32:20;;;;;;;7.10;5.70;;;;;;;;;;5005847;28;21010;-79
2021/06/03 10:34:47;;;;;;;5.70;4.97;;;;;;;;;;5003700;28;20500;-80
2021/06/03 10:37:14;;;;;;;6.53;5.93;;;;;;;;;;5000603;28;20455;-79
2021/06/03 10:39:41;;;;;;;5.73;5.30;;;;;;;;;;5014474;28;20443;-79
2021/06/03 10:42:07;;;;;;;6.70;6.10;;;;;;;;;;5006875;28;20500;-79
2021/06/03 10:44:35;;;;;;;7.23;5.43;;;;;;;;;;5015501;28;20435;-79
2021/06/03 10:47:01;;;;;;;9.40;5.73;;;;;;;;;;5022675;28;20822;-79
2021/06/03 10:49:30;;;;;;;7.90;6.43;;;;;;;;;;5023604;28;20434;-80
2021/06/03 10:51:57;;;;;;;7.37;5.90;;;;;;;;;;5019780;28;20478;-80
2021/06/03 10:54:42;;;;;;;5.77;5.27;;;;;;;;;;5024115;28;20434;-80
2021/06/03 10:57:09;;;;;;;5.60;5.00;;;;;;;;;;5006351;28;20469;-78
2021/06/03 10:59:37;;;;;;;5.37;4.87;;;;;;;;;;5022097;28;20416;-81
2021/06/03 11:02:03;;;;;;;9.93;5.43;;;;;;;;;;5022522;28;20520;-80
2021/06/03 11:04:31;;;;;;;6.03;5.30;;;;;;;;;;5023911;28;20437;-80
2021/06/03 11:06:57;;;;;;;5.20;4.80;;;;;;;;;;5014823;28;20792;-82
2021/06/03 11:09:27;;;;;;;5.20;4.80;;;;;;;;;;4996734;28;20436;-81
2021/06/03 11:12:25;;;;;;;6.00;5.50;;;;;;;;;;5006707;28;20448;-79
2021/06/03 11:15:10;;;;;;;6.20;5.60;;;;;;;;;;4948478;29;20548;-80
2021/06/03 11:17:48;;;;;;;6.63;4.80;;;;;;;;;;4965347;28;20428;-81
2021/06/03 11:20:15;;;;;;;5.27;4.87;;;;;;;;;;4950838;29;20448;-78
2021/06/03 11:22:41;;;;;;;5.73;5.23;;;;;;;;;;4956878;28;20580;-81
2021/06/03 11:25:07;;;;;;;6.07;5.47;;;;;;;;;;4957724;28;20481;-81
2021/06/03 11:27:37;;;;;;;11.30;8.30;;;;;;;;;;4953697;28;20458;-81
2021/06/03 11:30:06;;;;;;;5.77;5.27;;;;;;;;;;4966435;28;20765;-78
2021/06/03 11:32:34;;;;;;;5.77;5.23;;;;;;;;;;4938899;28;20957;-80
2021/06/03 11:35:01;;;;;;;9.37;6.10;;;;;;;;;;4937782;29;20407;-81
2021/06/03 11:37:36;;;;;;;5.27;4.83;;;;;;;;;;4961619;28;20838;-80
2021/06/03 11:40:08;;;;;;;5.60;4.83;;;;;;;;;;4968788;28;20470;-80
2021/06/03 11:42:39;;;;;;;5.40;4.90;;;;;;;;;;4962913;29;20477;-80
2021/06/03 11:45:08;;;;;;;9.03;5.57;;;;;;;;;;4944523;29;20434;-80
2021/06/03 11:47:37;;;;;;;6.27;5.67;;;;;;;;;;4962276;28;20439;-80
2021/06/03 11:50:07;;;;;;;6.70;5.40;;;;;;;;;;4978534;28;20428;-80
2021/06/03 11:52:33;;;;;;;6.20;4.77;;;;;;;;;;5015623;28;20906;-81
2021/06/03 11:55:00;;;;;;;6.47;5.50;;;;;;;;;;5017043;28;20445;-81
2021/06/03 11:57:38;;;;;;;5.90;5.30;;;;;;;;;;4994943;28;20511;-80
2021/06/03 12:00:08;;;;;;;7.13;5.00;;;;;;;;;;5021487;28;20432;-81
2021/06/03 12:02:36;;;;;;;7.27;5.33;;;;;;;;;;5022878;28;20459;-80
2021/06/03 12:05:11;;;;;;;7.23;5.23;;;;;;;;;;4992478;28;20455;-80
2021/06/03 12:07:47;;;;;;;4.90;4.43;;;;;;;;;;5017592;28;20461;-80
2021/06/03 12:10:18;;;;;;;6.27;5.10;;;;;;;;;;5022371;28;20483;-82
2021/06/03 12:12:44;;;;;;;5.60;5.10;;;;;;;;;;5004253;28;20440;-80
2021/06/03 12:15:16;;;;;;;6.60;5.47;;;;;;;;;;4989681;28;20442;-79
2021/06/03 12:17:43;;;;;;;5.80;5.30;;;;;;;;;;5022003;28;20450;-80
2021/06/03 12:20:12;;;;;;;6.10;4.80;;;;;;;;;;5009654;28;20422;-80
2021/06/03 12:22:39;;;;;;;5.87;5.47;;;;;;;;;;5010025;28;20518;-80
2021/06/03 12:25:05;;;;;;;5.53;5.07;;;;;;;;;;5009848;28;20445;-80
2021/06/03 12:27:35;;;;;;;5.83;5.23;;;;;;;;;;5010098;28;20444;-80
2021/06/03 12:30:21;;;;;;;8.23;4.33;;;;;;;;;;5005734;28;20462;-80
2021/06/03 12:33:01;;;;;;;6.53;4.93;;;;;;;;;;5020089;28;20821;-80
2021/06/03 12:35:35;;;;;;;8.03;5.67;;;;;;;;;;5016372;28;20423;-81
2021/06/03 12:38:01;;;;;;;5.23;4.53;;;;;;;;;;5002877;28;20439;-80
2021/06/03 12:40:28;;;;;;;4.57;4.20;;;;;;;;;;5000835;28;20434;-80
2021/06/03 12:43:20;;;;;;;4.50;4.20;;;;;;;;;;5028442;28;20464;-79
2021/06/03 12:45:47;;;;;;;5.30;4.07;;;;;;;;;;5002773;28;20438;-80
2021/06/03 12:48:16;;;;;;;5.23;4.73;;;;;;;;;;5003434;28;20513;-80
2021/06/03 12:50:47;;;;;;;7.50;4.40;;;;;;;;;;5004256;28;20505;-81
2021/06/03 12:53:15;;;;;;;4.87;4.40;;;;;;;;;;5005289;28;20449;-82
2021/06/03 12:55:41;;;;;;;6.53;4.87;;;;;;;;;;5001705;28;20443;-81
2021/06/03 12:58:09;;;;;;;6.70;5.00;;;;;;;;;;5018016;28;20445;-81
2021/06/03 13:00:35;;;;;;;4.47;4.17;;;;;;;;;;5020847;28;20445;-81
2021/06/03 13:03:21;;;;;;;4.87;4.43;;;;;;;;;;5006217;28;21069;-82
2021/06/03 13:06:00;;;;;;;4.33;3.90;;;;;;;;;;5021947;28;20446;-81
2021/06/03 13:08:40;;;;;;;8.00;4.10;;;;;;;;;;5020800;28;20441;-82
2021/06/03 13:11:06;;;;;;;4.30;3.90;;;;;;;;;;5024989;28;20431;-81
2021/06/03 13:13:33;;;;;;;4.50;4.20;;;;;;;;;;5019027;28;20444;-80
2021/06/03 13:15:59;;;;;;;4.93;4.43;;;;;;;;;;5014895;28;20449;-81
2021/06/03 13:18:26;;;;;;;4.93;4.60;;;;;;;;;;4993935;28;20441;-81
2021/06/03 13:20:54;;;;;;;4.83;4.20;;;;;;;;;;5017348;28;20825;-81
2021/06/03 13:23:27;;;;;;;5.57;5.07;;;;;;;;;;5011339;28;20484;-82
2021/06/03 13:25:54;;;;;;;5.03;4.40;;;;;;;;;;5005395;28;20421;-80
2021/06/03 13:28:22;;;;;;;4.47;3.90;;;;;;;;;;5016021;28;20929;-80
2021/06/03 13:30:50;;;;;;;4.97;4.57;;;;;;;;;;5000888;28;20442;-80
2021/06/03 13:33:18;;;;;;;5.07;4.67;;;;;;;;;;5022023;28;20469;-81
2021/06/03 13:36:07;;;;;;;5.37;4.87;;;;;;;;;;5023221;28;20445;-80
2021/06/03 13:38:41;;;;;;;5.17;4.30;;;;;;;;;;4998440;28;20929;-82
2021/06/03 13:41:07;;;;;;;4.93;4.50;;;;;;;;;;5009808;28;20413;-80
2021/06/03 13:43:34;;;;;;;6.70;5.53;;;;;;;;;;5020447;28;20480;-80
2021/06/03 13:46:05;;;;;;;5.10;4.70;;;;;;;;;;5000909;28;20467;-82
2021/06/03 13:48:31;;;;;;;6.60;4.67;;;;;;;;;;4989793;28;20842;-80
2021/06/03 13:51:05;;;;;;;5.30;4.30;;;;;;;;;;4998447;28;20434;-80
2021/06/03 13:53:31;;;;;;;4.40;4.10;;;;;;;;;;4988641;28;20433;-80
2021/06/03 13:55:57;;;;;;;6.03;5.00;;;;;;;;;;5004593;28;20417;-82
2021/06/03 13:58:33;;;;;;;4.73;4.33;;;;;;;;;;4993809;28;20456;-80
2021/06/03 14:01:05;;;;;;;10.13;4.83;;;;;;;;;;5010155;28;20476;-81
2021/06/03 14:03:44;;;;;;;6.23;5.03;;;;;;;;;;4993642;28;20510;-80
2021/06/03 14:06:10;;;;;;;6.73;5.07;;;;;;;;;;5007426;28;20923;-80
2021/06/03 14:08:41;;;;;;;5.50;5.00;;;;;;;;;;5007142;28;20414;-81
2021/06/03 14:11:18;;;;;;;6.00;4.57;;;;;;;;;;5016980;28;20885;-79
2021/06/03 14:13:49;;;;;;;5.27;4.77;;;;;;;;;;5018890;28;20449;-80
2021/06/03 14:16:33;;;;;;;8.40;4.53;;;;;;;;;;4993863;28;20512;-80
2021/06/03 14:19:04;;;;;;;4.50;4.20;;;;;;;;;;5003454;28;20464;-80
2021/06/03 14:21:30;;;;;;;5.80;4.40;;;;;;;;;;5019337;28;20467;-80
2021/06/03 14:23:56;;;;;;;4.97;4.47;;;;;;;;;;5026325;28;20525;-80
2021/06/03 14:26:22;;;;;;;5.33;4.83;;;;;;;;;;5021581;28;20499;-81
2021/06/03 14:29:01;;;;;;;7.10;5.20;;;;;;;;;;5020007;28;20447;-80
2021/06/03 14:31:43;;;;;;;4.90;4.50;;;;;;;;;;5018318;28;20443;-80
2021/06/03 14:34:24;;;;;;;6.77;5.07;;;;;;;;;;5002568;28;20492;-80
2021/06/03 14:36:58;;;;;;;5.93;5.33;;;;;;;;;;5006060;28;20486;-81
2021/06/03 14:39:43;;;;;;;6.53;5.30;;;;;;;;;;5030575;28;20460;-80
2021/06/03 14:42:45;;;;;;;5.03;4.63;;;;;;;;;;5009581;28;20470;-81
2021/06/03 14:45:13;;;;;;;6.60;4.97;;;;;;;;;;4974032;28;20444;-80
2021/06/03 14:47:39;;;;;;;5.20;4.70;;;;;;;;;;4949170;28;20476;-80
2021/06/03 14:50:06;;;;;;;5.07;4.57;;;;;;;;;;4981043;28;20421;-80
2021/06/03 14:52:33;;;;;;;5.40;5.00;;;;;;;;;;4978608;28;20440;-79